Time;durP1;ratioP1;P1;durP2;ratioP2;P2;SDS_P1;SDS_P2;PMS_P1;PMS_P2;Temp;Humidity;BMP_temperature;BMP_pressure;BME280_temperature;BME280_humidity;BME280_pressure;Samples;Min_cycle;Max_cycle;Signal;HPM_P1;HPM_P2
2021/03/04 00:00:18;;;;;;;54.58;26.52;;;4.90;92.30;;;;;;4992643;28;20039;-75
2021/03/04 00:02:44;;;;;;;54.20;26.30;;;4.90;92.20;;;;;;5022572;28;20097;-75
2021/03/04 00:05:12;;;;;;;55.97;26.90;;;4.80;92.30;;;;;;4982652;28;20419;-75
2021/03/04 00:07:38;;;;;;;60.28;29.00;;;4.80;92.40;;;;;;4998812;28;20280;-75
2021/03/04 00:10:12;;;;;;;53.95;25.83;;;4.80;92.50;;;;;;4998628;28;20033;-75
2021/03/04 00:12:38;;;;;;;58.25;28.83;;;4.80;92.70;;;;;;4999802;28;20136;-75
2021/03/04 00:15:07;;;;;;;57.20;28.05;;;4.80;92.70;;;;;;4998458;28;20029;-74
2021/03/04 00:17:33;;;;;;;53.70;28.25;;;4.70;92.60;;;;;;4998644;28;20022;-74
2021/03/04 00:19:59;;;;;;;59.90;30.55;;;4.70;92.80;;;;;;5022592;28;20044;-75
2021/03/04 00:22:26;;;;;;;61.45;31.25;;;4.70;92.80;;;;;;4983153;28;20026;-74
2021/03/04 00:24:51;;;;;;;55.13;30.17;;;4.80;92.80;;;;;;4999225;28;20483;-75
2021/03/04 00:27:17;;;;;;;56.25;29.88;;;4.80;92.50;;;;;;5021739;28;20081;-74
2021/03/04 00:29:43;;;;;;;63.97;32.03;;;4.80;92.40;;;;;;4999770;28;20037;-75
2021/03/04 00:32:08;;;;;;;62.95;31.33;;;4.70;92.50;;;;;;4997475;28;20038;-75
2021/03/04 00:34:34;;;;;;;62.22;31.92;;;4.60;92.60;;;;;;4997059;28;20089;-75
2021/03/04 00:37:00;;;;;;;65.55;33.20;;;4.60;92.90;;;;;;4999845;28;20072;-75
2021/03/04 00:39:25;;;;;;;62.17;32.25;;;4.60;92.90;;;;;;5000712;28;21090;-75
2021/03/04 00:41:51;;;;;;;60.67;31.55;;;4.60;92.90;;;;;;5020154;28;20148;-75
2021/03/04 00:44:17;;;;;;;62.70;32.30;;;4.60;92.70;;;;;;4999865;28;20550;-75
2021/03/04 00:46:42;;;;;;;54.70;30.08;;;4.70;92.70;;;;;;4998533;28;20046;-75
2021/03/04 00:49:08;;;;;;;61.83;31.48;;;4.70;92.70;;;;;;5001794;28;20038;-75
2021/03/04 00:51:33;;;;;;;52.67;29.42;;;4.70;92.60;;;;;;4995679;28;20073;-74
2021/03/04 00:53:59;;;;;;;52.20;27.45;;;4.60;92.40;;;;;;4997528;28;20383;-75
2021/03/04 00:56:25;;;;;;;53.42;28.58;;;4.60;92.30;;;;;;4996739;28;20209;-74
2021/03/04 00:58:50;;;;;;;51.50;27.45;;;4.60;92.20;;;;;;5019476;28;20034;-75
2021/03/04 01:01:17;;;;;;;44.85;25.15;;;4.60;92.30;;;;;;4996869;28;20042;-75
2021/03/04 01:03:43;;;;;;;44.80;25.08;;;4.50;92.20;;;;;;5022666;28;20038;-74
2021/03/04 01:06:08;;;;;;;47.42;24.73;;;4.40;92.20;;;;;;5013037;28;20056;-74
2021/03/04 01:08:34;;;;;;;47.25;24.80;;;4.40;92.30;;;;;;4996280;28;20053;-74
2021/03/04 01:11:00;;;;;;;49.03;25.42;;;4.40;92.20;;;;;;4983347;28;20113;-74
2021/03/04 01:13:25;;;;;;;48.50;24.90;;;4.40;92.10;;;;;;4998207;28;20030;-74
2021/03/04 01:15:52;;;;;;;39.85;23.60;;;4.40;92.10;;;;;;4995293;28;20073;-74
2021/03/04 01:18:18;;;;;;;36.25;21.27;;;4.40;92.20;;;;;;4996800;28;20506;-74
2021/03/04 01:20:43;;;;;;;36.30;20.15;;;4.30;92.10;;;;;;4996541;28;20033;-75
2021/03/04 01:23:09;;;;;;;35.80;18.70;;;4.30;91.90;;;;;;4995823;28;20034;-75
2021/03/04 01:25:35;;;;;;;33.10;18.30;;;4.30;91.90;;;;;;4995086;28;20556;-75
2021/03/04 01:28:00;;;;;;;28.52;15.88;;;4.30;91.70;;;;;;4998929;28;20030;-75
2021/03/04 01:30:30;;;;;;;29.42;16.33;;;4.20;91.80;;;;;;4978726;28;20022;-75
2021/03/04 01:32:56;;;;;;;31.33;16.15;;;4.20;91.70;;;;;;5002612;28;20028;-75
2021/03/04 01:35:21;;;;;;;30.00;15.93;;;4.10;91.90;;;;;;4998586;28;20289;-74
2021/03/04 01:37:47;;;;;;;27.08;15.52;;;4.10;92.00;;;;;;4996993;28;20080;-74
2021/03/04 01:40:16;;;;;;;24.48;13.93;;;4.10;92.20;;;;;;4995918;28;20104;-74
2021/03/04 01:42:42;;;;;;;25.23;12.55;;;4.00;92.00;;;;;;5016333;28;20028;-74
2021/03/04 01:45:08;;;;;;;22.73;12.32;;;4.00;92.10;;;;;;4997778;28;20026;-74
2021/03/04 01:47:35;;;;;;;21.05;11.57;;;4.00;92.00;;;;;;4981462;28;20024;-75
2021/03/04 01:50:04;;;;;;;21.90;11.75;;;4.00;92.10;;;;;;4992188;28;20069;-74
2021/03/04 01:52:30;;;;;;;19.20;10.80;;;4.00;92.10;;;;;;4997550;28;20057;-74
2021/03/04 01:54:56;;;;;;;20.17;11.88;;;4.00;92.10;;;;;;4981818;28;20026;-74
2021/03/04 01:57:23;;;;;;;23.27;12.27;;;3.90;92.20;;;;;;5017562;28;20037;-74
2021/03/04 01:59:48;;;;;;;18.50;10.18;;;4.00;92.30;;;;;;4998719;28;20026;-74
2021/03/04 02:02:14;;;;;;;20.30;10.95;;;3.90;92.20;;;;;;4994582;28;20067;-74
2021/03/04 02:04:40;;;;;;;17.60;10.38;;;3.90;92.20;;;;;;4996748;28;20026;-75
2021/03/04 02:07:39;;;;;;;19.38;10.20;;;4.00;92.20;;;;;;4996773;28;20097;-74
2021/03/04 02:10:16;;;;;;;19.63;9.85;;;4.00;92.20;;;;;;4996016;28;20037;-75
2021/03/04 02:12:59;;;;;;;13.07;7.85;;;4.10;91.80;;;;;;4998968;28;20045;-75
2021/03/04 02:15:30;;;;;;;12.23;6.40;;;4.00;91.60;;;;;;4994623;28;20033;-75
2021/03/04 02:18:01;;;;;;;9.60;5.85;;;4.00;91.50;;;;;;4996008;28;20031;-75
2021/03/04 02:20:55;;;;;;;12.65;6.50;;;4.00;91.40;;;;;;4996676;28;20395;-74
2021/03/04 02:23:29;;;;;;;11.98;6.63;;;4.00;91.40;;;;;;4977675;28;20475;-75
2021/03/04 02:26:16;;;;;;;11.52;6.47;;;3.90;91.50;;;;;;4979287;28;20084;-75
2021/03/04 02:28:45;;;;;;;12.07;7.00;;;3.90;91.60;;;;;;4996298;28;20036;-75
2021/03/04 02:31:10;;;;;;;14.35;7.32;;;3.90;91.70;;;;;;4992380;28;20026;-75
2021/03/04 02:33:37;;;;;;;11.65;7.03;;;3.90;91.80;;;;;;4999026;28;20536;-74
2021/03/04 02:36:04;;;;;;;15.73;7.57;;;3.90;91.80;;;;;;4995584;28;20033;-75
2021/03/04 02:38:31;;;;;;;13.35;7.15;;;3.90;92.00;;;;;;4998229;28;20080;-75
2021/03/04 02:40:58;;;;;;;13.95;7.50;;;3.90;92.00;;;;;;4998635;28;20392;-75
2021/03/04 02:43:26;;;;;;;15.40;8.15;;;3.90;92.00;;;;;;4977686;28;20026;-74
2021/03/04 02:45:53;;;;;;;13.13;7.50;;;4.00;92.00;;;;;;4998627;28;20083;-75
2021/03/04 02:48:20;;;;;;;17.27;8.07;;;4.00;91.90;;;;;;4996136;28;20026;-74
2021/03/04 02:50:48;;;;;;;14.98;7.50;;;3.90;91.90;;;;;;4998061;28;20037;-75
2021/03/04 02:53:14;;;;;;;15.00;7.90;;;3.90;92.00;;;;;;5019563;28;20033;-74
2021/03/04 02:55:41;;;;;;;18.90;7.97;;;3.80;92.20;;;;;;4996946;28;20050;-75
2021/03/04 02:58:11;;;;;;;18.23;8.13;;;3.80;92.30;;;;;;4998101;28;20319;-75
2021/03/04 03:00:39;;;;;;;12.90;7.30;;;3.70;92.40;;;;;;4998043;28;20542;-75
2021/03/04 03:03:12;;;;;;;13.90;7.43;;;3.70;92.40;;;;;;5018080;28;20510;-74
2021/03/04 03:05:42;;;;;;;14.65;8.07;;;3.70;92.40;;;;;;4978354;28;20046;-74
2021/03/04 03:08:12;;;;;;;17.33;8.13;;;3.70;92.40;;;;;;4997087;28;20061;-74
2021/03/04 03:10:38;;;;;;;14.90;7.78;;;3.80;92.40;;;;;;4994572;28;20076;-75
2021/03/04 03:13:04;;;;;;;13.70;7.15;;;3.80;92.30;;;;;;4996274;28;20062;-75
2021/03/04 03:15:30;;;;;;;13.20;7.43;;;3.80;92.30;;;;;;5019772;28;20570;-74
2021/03/04 03:17:56;;;;;;;14.55;9.15;;;3.90;92.30;;;;;;4996540;28;20080;-74
2021/03/04 03:20:23;;;;;;;15.45;7.03;;;3.90;92.30;;;;;;4996085;28;20416;-75
2021/03/04 03:22:50;;;;;;;16.35;6.50;;;3.90;92.20;;;;;;4994961;28;20037;-74
2021/03/04 03:25:16;;;;;;;11.88;6.60;;;3.90;91.90;;;;;;4995361;28;20403;-75
2021/03/04 03:27:44;;;;;;;15.02;7.10;;;3.90;92.00;;;;;;4997042;28;20026;-74
2021/03/04 03:30:12;;;;;;;12.20;6.90;;;3.90;92.00;;;;;;4993646;28;20030;-75
2021/03/04 03:32:40;;;;;;;14.32;7.00;;;3.90;91.80;;;;;;4998750;28;20037;-75
2021/03/04 03:35:07;;;;;;;12.18;6.68;;;3.90;91.90;;;;;;4997840;28;20082;-75
2021/03/04 03:37:35;;;;;;;13.15;6.20;;;3.90;91.90;;;;;;4975911;28;20029;-74
2021/03/04 03:40:02;;;;;;;11.60;6.25;;;3.90;91.80;;;;;;4993253;28;20041;-75
2021/03/04 03:42:28;;;;;;;12.07;6.50;;;3.90;91.60;;;;;;4997904;28;20113;-74
2021/03/04 03:44:55;;;;;;;10.63;6.18;;;3.90;91.80;;;;;;4996643;28;20184;-75
2021/03/04 03:47:23;;;;;;;13.07;7.18;;;3.90;91.70;;;;;;4996812;28;20395;-74
2021/03/04 03:49:50;;;;;;;11.73;7.03;;;3.90;91.50;;;;;;4996217;28;20026;-74
2021/03/04 03:52:16;;;;;;;13.13;7.38;;;3.90;91.70;;;;;;4996695;28;20034;-74
2021/03/04 03:54:42;;;;;;;16.50;7.68;;;3.90;91.50;;;;;;4992957;28;20072;-75
2021/03/04 03:57:09;;;;;;;15.77;7.82;;;3.80;91.60;;;;;;4978364;28;20431;-74
2021/03/04 03:59:35;;;;;;;11.15;6.03;;;3.80;91.50;;;;;;5018893;28;20024;-75
2021/03/04 04:02:02;;;;;;;10.23;5.50;;;3.80;91.20;;;;;;5013032;28;20038;-75
2021/03/04 04:04:29;;;;;;;10.77;5.70;;;3.80;91.20;;;;;;4996327;28;20614;-75
2021/03/04 04:06:55;;;;;;;10.98;6.30;;;3.80;90.90;;;;;;4996114;28;20034;-75
2021/03/04 04:09:21;;;;;;;10.52;6.45;;;3.80;90.90;;;;;;4999992;28;20177;-75
2021/03/04 04:11:47;;;;;;;11.90;6.07;;;3.80;91.10;;;;;;4994495;28;20506;-75
2021/03/04 04:14:13;;;;;;;10.23;6.15;;;3.80;91.10;;;;;;5023469;28;20026;-74
2021/03/04 04:16:39;;;;;;;11.25;5.90;;;3.90;91.10;;;;;;5003958;28;20428;-75
2021/03/04 04:19:05;;;;;;;11.35;6.72;;;3.90;91.00;;;;;;5001441;28;20026;-75
2021/03/04 04:21:31;;;;;;;10.00;4.75;;;3.90;91.00;;;;;;4998790;28;20443;-74
2021/03/04 04:23:57;;;;;;;10.02;5.15;;;4.00;90.40;;;;;;4999834;28;20030;-74
2021/03/04 04:26:23;;;;;;;9.13;5.32;;;4.00;90.60;;;;;;4997596;28;20045;-75
2021/03/04 04:28:48;;;;;;;9.30;5.75;;;3.90;90.60;;;;;;5023932;28;20038;-74
2021/03/04 04:31:14;;;;;;;9.52;5.47;;;4.00;90.70;;;;;;4997605;28;20042;-75
2021/03/04 04:33:43;;;;;;;8.85;5.65;;;4.00;90.50;;;;;;5000020;28;20396;-75
2021/03/04 04:36:09;;;;;;;7.72;5.20;;;4.00;90.40;;;;;;5015225;28;20018;-75
2021/03/04 04:38:35;;;;;;;9.75;5.18;;;4.00;90.40;;;;;;4979605;28;20084;-74
2021/03/04 04:41:00;;;;;;;7.25;5.07;;;4.00;90.20;;;;;;4979870;28;20070;-74
2021/03/04 04:43:26;;;;;;;10.65;5.10;;;4.00;90.20;;;;;;4998978;28;20042;-75
2021/03/04 04:45:52;;;;;;;11.05;6.00;;;4.00;90.20;;;;;;5022620;28;20035;-75
2021/03/04 04:48:18;;;;;;;8.15;5.20;;;4.00;90.30;;;;;;4999402;28;20113;-74
2021/03/04 04:50:43;;;;;;;8.40;5.45;;;4.00;90.30;;;;;;5002971;28;20026;-75
2021/03/04 04:53:10;;;;;;;11.70;5.53;;;4.00;90.30;;;;;;4995907;28;20025;-75
2021/03/04 04:55:36;;;;;;;11.05;5.43;;;4.00;90.30;;;;;;5000221;28;20546;-74
2021/03/04 04:58:02;;;;;;;8.43;5.45;;;4.00;90.10;;;;;;5007174;28;20031;-74
2021/03/04 05:00:27;;;;;;;10.05;5.07;;;4.10;90.00;;;;;;4997410;28;20084;-75
2021/03/04 05:02:53;;;;;;;8.20;5.10;;;4.10;90.10;;;;;;4996442;28;20457;-75
2021/03/04 05:05:19;;;;;;;8.73;5.30;;;4.10;90.10;;;;;;4997251;28;20069;-74
2021/03/04 05:07:44;;;;;;;9.93;5.97;;;4.10;90.10;;;;;;5018228;23;20046;-71
2021/03/04 05:10:11;;;;;;;9.00;5.10;;;4.10;90.20;;;;;;4994809;28;20403;-71
2021/03/04 05:12:37;;;;;;;10.05;5.60;;;4.10;90.10;;;;;;4994788;28;20018;-71
2021/03/04 05:15:08;;;;;;;9.18;5.43;;;4.10;89.90;;;;;;4998133;28;20036;-71
2021/03/04 05:17:35;;;;;;;8.02;4.97;;;4.10;89.80;;;;;;4997115;28;20439;-71
2021/03/04 05:20:02;;;;;;;8.52;4.47;;;4.00;89.90;;;;;;4998437;28;20034;-71
2021/03/04 05:22:28;;;;;;;8.23;4.57;;;4.10;89.90;;;;;;4995339;28;20026;-71
2021/03/04 05:24:53;;;;;;;10.98;5.13;;;4.10;89.50;;;;;;4998224;28;20372;-71
2021/03/04 05:27:22;;;;;;;6.78;4.43;;;4.10;90.00;;;;;;4996763;28;20480;-70
2021/03/04 05:29:48;;;;;;;7.38;4.05;;;4.10;89.40;;;;;;4995228;28;20114;-70
2021/03/04 05:32:16;;;;;;;7.78;4.25;;;4.10;89.10;;;;;;4999466;28;20112;-70
2021/03/04 05:34:41;;;;;;;7.05;3.72;;;4.10;89.20;;;;;;4997019;28;20033;-71
2021/03/04 05:37:07;;;;;;;8.63;3.80;;;4.10;89.10;;;;;;4999004;28;20022;-70
2021/03/04 05:39:32;;;;;;;8.25;4.25;;;4.10;88.80;;;;;;5014053;28;20027;-70
2021/03/04 05:41:58;;;;;;;6.80;3.97;;;4.10;88.80;;;;;;4999758;28;20028;-70
2021/03/04 05:44:26;;;;;;;8.80;4.43;;;4.20;88.60;;;;;;4996330;28;20064;-70
2021/03/04 05:46:52;;;;;;;9.43;4.72;;;4.20;88.80;;;;;;4981915;28;20034;-70
2021/03/04 05:49:19;;;;;;;8.32;4.75;;;4.20;88.70;;;;;;4996501;28;20029;-70
2021/03/04 05:51:50;;;;;;;6.40;4.20;;;4.30;88.80;;;;;;5003252;28;20036;-70
2021/03/04 05:54:18;;;;;;;6.32;3.95;;;4.30;88.30;;;;;;4997520;28;20036;-71
2021/03/04 05:56:44;;;;;;;7.88;4.35;;;4.30;88.10;;;;;;4996440;28;20428;-71
2021/03/04 05:59:10;;;;;;;6.50;4.22;;;4.30;88.60;;;;;;5002096;28;20109;-71
2021/03/04 06:01:36;;;;;;;12.75;4.05;;;4.30;88.10;;;;;;4997093;28;20060;-71
2021/03/04 06:04:02;;;;;;;8.52;4.53;;;4.30;88.20;;;;;;5000676;28;20405;-71
2021/03/04 06:06:28;;;;;;;8.60;4.70;;;4.30;88.30;;;;;;5001816;28;20025;-71
2021/03/04 06:08:53;;;;;;;8.25;4.63;;;4.30;88.00;;;;;;4998322;28;20038;-70
2021/03/04 06:11:19;;;;;;;12.85;4.38;;;4.30;88.00;;;;;;4995442;28;20033;-71
2021/03/04 06:13:45;;;;;;;10.30;5.30;;;4.30;88.20;;;;;;4999494;28;20092;-71
2021/03/04 06:16:10;;;;;;;9.15;4.47;;;4.30;88.30;;;;;;4997166;28;20083;-71
2021/03/04 06:18:41;;;;;;;7.90;4.43;;;4.30;88.20;;;;;;4995840;28;20113;-71
2021/03/04 06:21:24;;;;;;;6.47;4.60;;;4.20;88.20;;;;;;4997840;28;20503;-71
2021/03/04 06:23:50;;;;;;;8.52;4.53;;;4.20;88.30;;;;;;4997612;28;20043;-71
2021/03/04 06:26:23;;;;;;;8.52;5.00;;;4.20;88.60;;;;;;4997790;28;20034;-71
2021/03/04 06:28:49;;;;;;;10.02;4.97;;;4.20;88.70;;;;;;4997206;28;20445;-71
2021/03/04 06:31:19;;;;;;;9.18;4.10;;;4.20;88.60;;;;;;4997991;28;20125;-71
2021/03/04 06:33:45;;;;;;;7.63;4.30;;;4.30;88.20;;;;;;4997373;28;20022;-71
2021/03/04 06:36:16;;;;;;;9.05;4.50;;;4.30;88.30;;;;;;5011883;28;20029;-71
2021/03/04 06:38:56;;;;;;;8.40;4.22;;;4.30;88.20;;;;;;4997530;28;20681;-71
2021/03/04 06:41:22;;;;;;;6.38;4.30;;;4.30;88.00;;;;;;4980926;28;20038;-71
2021/03/04 06:44:00;;;;;;;7.28;3.95;;;4.30;87.70;;;;;;4996585;28;20038;-71
2021/03/04 06:46:25;;;;;;;7.28;3.88;;;4.30;87.80;;;;;;4995238;28;20034;-72
2021/03/04 06:48:52;;;;;;;10.85;4.20;;;4.30;87.70;;;;;;4994166;28;20034;-71
2021/03/04 06:51:18;;;;;;;5.55;3.75;;;4.30;87.70;;;;;;4994384;28;20476;-71
2021/03/04 06:53:52;;;;;;;7.20;3.60;;;4.30;87.70;;;;;;4996198;28;20132;-70
2021/03/04 06:56:30;;;;;;;10.27;3.95;;;4.40;87.80;;;;;;4997181;28;20053;-71
2021/03/04 06:59:01;;;;;;;6.40;3.33;;;4.40;87.40;;;;;;5005216;28;20030;-71
2021/03/04 07:01:28;;;;;;;7.90;3.88;;;4.40;87.40;;;;;;5002109;28;20081;-70
2021/03/04 07:03:54;;;;;;;11.32;4.38;;;4.40;87.00;;;;;;4980531;28;20103;-72
2021/03/04 07:06:24;;;;;;;6.88;3.75;;;4.40;87.30;;;;;;4994476;28;21987;-72
2021/03/04 07:08:52;;;;;;;8.97;3.50;;;4.40;87.40;;;;;;5012476;28;20133;-73
2021/03/04 07:11:20;;;;;;;4.90;2.92;;;4.40;87.60;;;;;;4996133;28;20164;-72
2021/03/04 07:13:47;;;;;;;6.55;3.53;;;4.40;87.60;;;;;;4997249;28;20100;-73
2021/03/04 07:16:19;;;;;;;8.07;3.45;;;4.40;87.50;;;;;;4996568;28;20092;-72
2021/03/04 07:18:59;;;;;;;8.43;3.65;;;4.40;87.30;;;;;;4998533;28;20030;-72
2021/03/04 07:21:34;;;;;;;6.88;3.83;;;4.50;87.20;;;;;;4995636;28;20058;-72
2021/03/04 07:24:03;;;;;;;9.32;3.53;;;4.40;87.40;;;;;;5009196;28;20026;-72
2021/03/04 07:26:29;;;;;;;7.70;3.40;;;4.50;87.30;;;;;;4993488;28;20037;-72
2021/03/04 07:28:56;;;;;;;9.93;3.58;;;4.50;87.00;;;;;;4990429;28;20026;-73
2021/03/04 07:31:22;;;;;;;10.05;3.25;;;4.50;87.20;;;;;;4985690;28;20062;-72
2021/03/04 07:33:49;;;;;;;8.90;3.05;;;4.50;87.30;;;;;;4995181;28;20050;-72
2021/03/04 07:36:20;;;;;;;8.95;3.47;;;4.50;87.30;;;;;;4991631;28;20022;-72
2021/03/04 07:39:00;;;;;;;5.32;3.03;;;4.50;87.50;;;;;;4993861;28;20026;-73
2021/03/04 07:41:36;;;;;;;7.28;3.25;;;4.60;87.10;;;;;;4997746;28;20444;-72
2021/03/04 07:44:02;;;;;;;10.60;3.38;;;4.60;87.20;;;;;;4996632;28;20514;-72
2021/03/04 07:46:27;;;;;;;15.38;3.85;;;4.60;87.20;;;;;;4998814;28;20030;-73
2021/03/04 07:48:53;;;;;;;7.40;3.38;;;4.60;87.10;;;;;;4979297;28;20102;-72
2021/03/04 07:51:19;;;;;;;6.13;3.33;;;4.60;87.20;;;;;;4990849;28;20148;-72
2021/03/04 07:53:46;;;;;;;8.38;3.80;;;4.60;87.00;;;;;;4988839;28;20030;-77
2021/03/04 07:56:26;;;;;;;12.55;3.28;;;4.70;87.00;;;;;;4984327;28;20649;-72
2021/03/04 07:58:52;;;;;;;6.53;3.42;;;4.70;87.10;;;;;;5011703;28;20084;-71
2021/03/04 08:01:18;;;;;;;7.25;4.05;;;4.70;86.90;;;;;;4993180;28;20038;-72
2021/03/04 08:03:46;;;;;;;8.80;3.10;;;4.70;87.10;;;;;;4999454;28;20028;-72
2021/03/04 08:06:12;;;;;;;7.28;3.35;;;4.70;86.80;;;;;;4996902;28;20445;-72
2021/03/04 08:08:38;;;;;;;8.00;3.30;;;4.80;86.60;;;;;;4997719;28;20117;-72
2021/03/04 08:11:04;;;;;;;10.52;3.53;;;4.80;86.60;;;;;;4998921;28;20476;-72
2021/03/04 08:13:31;;;;;;;9.35;3.25;;;4.70;86.50;;;;;;5001483;28;20037;-72
2021/03/04 08:15:57;;;;;;;9.02;2.83;;;4.80;86.50;;;;;;5001271;28;20499;-73
2021/03/04 08:18:25;;;;;;;7.20;3.42;;;4.70;86.80;;;;;;4984316;28;20062;-72
2021/03/04 08:20:52;;;;;;;11.20;3.70;;;4.80;86.90;;;;;;5011895;28;20472;-72
2021/03/04 08:23:20;;;;;;;6.40;3.00;;;4.80;87.00;;;;;;4997203;28;20495;-72
2021/03/04 08:25:47;;;;;;;11.98;3.47;;;4.80;86.50;;;;;;4997299;28;20042;-72
2021/03/04 08:28:33;;;;;;;8.98;3.17;;;4.90;86.30;;;;;;4982156;28;20122;-71
2021/03/04 08:31:06;;;;;;;6.68;2.80;;;4.90;86.40;;;;;;4998261;28;20038;-72
2021/03/04 08:33:34;;;;;;;9.52;3.00;;;4.90;86.60;;;;;;4993374;28;20026;-72
2021/03/04 08:36:01;;;;;;;8.13;3.10;;;4.90;86.20;;;;;;4999340;28;20069;-71
2021/03/04 08:38:27;;;;;;;6.72;2.85;;;4.90;86.40;;;;;;5000799;28;20033;-72
2021/03/04 08:40:55;;;;;;;7.13;3.20;;;4.90;86.50;;;;;;5000675;28;20038;-71
2021/03/04 08:43:29;;;;;;;6.60;3.08;;;4.90;86.60;;;;;;5002530;28;20033;-71
2021/03/04 08:46:06;;;;;;;7.22;2.92;;;5.00;86.40;;;;;;4997710;28;20034;-71
2021/03/04 08:48:32;;;;;;;6.25;2.53;;;5.00;86.40;;;;;;4998433;28;20504;-71
2021/03/04 08:51:03;;;;;;;7.78;2.92;;;5.00;86.40;;;;;;5008139;28;20547;-72
2021/03/04 08:53:33;;;;;;;;;;;5.00;86.30;;;;;;5003383;28;20030;-71
2021/03/04 08:56:07;;;;;;;7.35;2.85;;;5.10;85.90;;;;;;4999325;28;19906;-72
2021/03/04 08:58:43;;;;;;;9.77;2.80;;;5.10;86.30;;;;;;4989337;28;20053;-72
2021/03/04 09:01:09;;;;;;;13.25;3.17;;;5.10;86.20;;;;;;4974988;28;20030;-72
2021/03/04 09:03:38;;;;;;;7.38;2.90;;;5.10;86.00;;;;;;4990142;28;20283;-73
2021/03/04 09:06:11;;;;;;;11.25;2.97;;;5.10;85.70;;;;;;5005319;28;20121;-72
2021/03/04 09:08:41;;;;;;;9.02;3.35;;;5.20;86.10;;;;;;4995884;28;20124;-73
2021/03/04 09:11:09;;;;;;;7.40;3.10;;;5.20;86.40;;;;;;4994272;28;20377;-73
2021/03/04 09:13:38;;;;;;;7.22;3.30;;;5.20;86.10;;;;;;4994958;28;20113;-72
2021/03/04 09:16:07;;;;;;;9.63;3.35;;;5.20;86.30;;;;;;5000577;28;20029;-72
2021/03/04 09:18:46;;;;;;;5.93;2.65;;;5.20;85.90;;;;;;5001832;28;20046;-73
2021/03/04 09:21:18;;;;;;;8.88;3.08;;;5.20;86.10;;;;;;5003268;28;20030;-72
2021/03/04 09:23:44;;;;;;;9.35;3.25;;;5.20;86.10;;;;;;5000760;28;20068;-73
2021/03/04 09:26:10;;;;;;;10.60;3.70;;;5.30;85.80;;;;;;5015485;28;20050;-72
2021/03/04 09:28:38;;;;;;;11.90;3.38;;;5.30;86.80;;;;;;4990591;28;20058;-72
2021/03/04 09:31:15;;;;;;;11.95;3.95;;;5.50;88.90;;;;;;4996044;28;20034;-72
2021/03/04 09:33:42;;;;;;;8.63;3.38;;;6.10;86.70;;;;;;4980221;28;20026;-72
2021/03/04 09:36:08;;;;;;;7.45;3.00;;;6.30;83.90;;;;;;4989978;28;20135;-72
2021/03/04 09:38:35;;;;;;;10.23;2.95;;;6.30;82.50;;;;;;4993031;28;20556;-73
2021/03/04 09:41:15;;;;;;;8.75;2.95;;;6.20;83.00;;;;;;4995737;28;20034;-73
2021/03/04 09:43:49;;;;;;;10.68;3.25;;;6.00;83.70;;;;;;4976966;28;20088;-72
2021/03/04 09:46:35;;;;;;;12.57;3.30;;;6.00;83.30;;;;;;4990889;28;20030;-74
2021/03/04 09:49:12;;;;;;;9.68;2.97;;;5.90;83.90;;;;;;4994725;28;20033;-74
2021/03/04 09:51:42;;;;;;;9.00;2.70;;;5.80;84.00;;;;;;4987329;28;20117;-73
2021/03/04 09:54:09;;;;;;;7.28;3.97;;;5.80;84.60;;;;;;4992172;28;20160;-73
2021/03/04 09:56:36;;;;;;;8.25;3.08;;;5.70;84.70;;;;;;4994884;28;20470;-73
2021/03/04 09:59:02;;;;;;;10.98;3.33;;;5.70;85.00;;;;;;4994838;28;20030;-71
2021/03/04 10:01:34;;;;;;;7.20;3.40;;;5.80;84.70;;;;;;4978604;28;20448;-71
2021/03/04 10:04:07;;;;;;;12.75;3.65;;;5.80;84.70;;;;;;4994739;28;20037;-72
2021/03/04 10:06:38;;;;;;;11.00;3.70;;;5.80;85.10;;;;;;4995573;28;20092;-71
2021/03/04 10:09:08;;;;;;;8.40;3.38;;;5.70;85.30;;;;;;4991354;28;20117;-71
2021/03/04 10:11:38;;;;;;;14.57;3.22;;;5.80;85.30;;;;;;5010647;28;20727;-71
2021/03/04 10:14:09;;;;;;;9.60;3.80;;;5.80;85.20;;;;;;5016445;28;20037;-72
2021/03/04 10:16:39;;;;;;;11.02;3.30;;;5.80;85.20;;;;;;4995373;28;20113;-72
2021/03/04 10:19:06;;;;;;;12.07;3.17;;;5.80;85.00;;;;;;4997104;28;20023;-71
2021/03/04 10:21:33;;;;;;;13.65;3.58;;;5.80;84.40;;;;;;4997528;28;20407;-72
2021/03/04 10:23:59;;;;;;;7.88;2.92;;;5.90;83.70;;;;;;4999942;28;20672;-72
2021/03/04 10:26:34;;;;;;;8.55;3.10;;;5.80;83.80;;;;;;4995095;28;20065;-72
2021/03/04 10:29:00;;;;;;;10.13;2.70;;;5.90;84.20;;;;;;4994361;28;20085;-72
2021/03/04 10:31:26;;;;;;;7.80;2.78;;;6.00;83.60;;;;;;4993536;28;20026;-71
2021/03/04 10:33:52;;;;;;;12.05;3.30;;;6.00;83.30;;;;;;4992373;28;20032;-72
2021/03/04 10:36:17;;;;;;;13.30;3.00;;;6.00;83.60;;;;;;4991084;28;20022;-72
2021/03/04 10:38:43;;;;;;;11.70;2.92;;;6.10;83.20;;;;;;4992101;28;20034;-72
2021/03/04 10:41:09;;;;;;;9.75;3.05;;;6.10;83.20;;;;;;4994042;28;20053;-72
2021/03/04 10:43:35;;;;;;;12.02;3.15;;;6.10;83.10;;;;;;4991321;28;20428;-72
2021/03/04 10:46:00;;;;;;;7.70;2.53;;;6.20;82.60;;;;;;4983198;28;20065;-72
2021/03/04 10:48:26;;;;;;;7.07;3.20;;;6.20;82.60;;;;;;4997421;28;20109;-72
2021/03/04 10:50:52;;;;;;;7.95;2.80;;;6.10;82.90;;;;;;4993296;28;20034;-72
2021/03/04 10:53:17;;;;;;;11.13;3.00;;;6.10;83.20;;;;;;4993408;28;20040;-72
2021/03/04 10:55:43;;;;;;;11.77;3.63;;;6.10;83.20;;;;;;5007178;28;20069;-72
2021/03/04 10:58:08;;;;;;;9.95;3.28;;;6.10;83.10;;;;;;4997826;28;20022;-72
2021/03/04 11:00:35;;;;;;;11.65;2.88;;;6.10;83.10;;;;;;4997727;28;20508;-71
2021/03/04 11:03:00;;;;;;;9.75;3.20;;;6.10;83.10;;;;;;4993315;28;20400;-72
2021/03/04 11:05:26;;;;;;;13.85;3.42;;;6.20;82.50;;;;;;4997035;28;20052;-72
2021/03/04 11:07:51;;;;;;;10.45;2.38;;;6.10;82.70;;;;;;5016701;23;20021;-68
2021/03/04 11:10:17;;;;;;;13.20;3.50;;;6.20;82.40;;;;;;4998748;28;20849;-68
2021/03/04 11:12:43;;;;;;;8.77;2.28;;;6.10;82.50;;;;;;4994816;28;20030;-68
2021/03/04 11:15:09;;;;;;;10.05;2.50;;;6.10;82.40;;;;;;5013648;28;20042;-68
2021/03/04 11:17:35;;;;;;;7.93;2.85;;;6.10;81.50;;;;;;5002082;28;20025;-69
2021/03/04 11:20:01;;;;;;;9.35;2.53;;;6.10;81.60;;;;;;4996804;28;20479;-68
2021/03/04 11:22:26;;;;;;;10.55;2.50;;;6.20;81.20;;;;;;4993577;28;20029;-68
2021/03/04 11:24:52;;;;;;;6.00;2.40;;;6.20;80.80;;;;;;4998212;28;20084;-67
2021/03/04 11:27:18;;;;;;;5.28;2.15;;;6.20;80.60;;;;;;4992905;28;20473;-68
2021/03/04 11:29:47;;;;;;;12.32;2.75;;;6.20;81.10;;;;;;4994912;28;20048;-68
2021/03/04 11:32:13;;;;;;;12.02;2.63;;;6.20;81.20;;;;;;4996856;28;20068;-70
2021/03/04 11:34:39;;;;;;;9.98;2.17;;;6.20;81.30;;;;;;4996606;28;20022;-69
2021/03/04 11:37:05;;;;;;;11.35;2.92;;;6.20;81.20;;;;;;4995209;28;20030;-70
2021/03/04 11:39:31;;;;;;;11.23;2.78;;;6.20;81.40;;;;;;4995932;28;20034;-70
2021/03/04 11:41:56;;;;;;;8.07;2.50;;;6.30;80.90;;;;;;4999162;28;20082;-71
2021/03/04 11:44:22;;;;;;;10.90;2.60;;;6.30;80.90;;;;;;4994098;28;20200;-70
2021/03/04 11:46:48;;;;;;;11.02;3.00;;;6.30;80.90;;;;;;4997805;28;20033;-72
2021/03/04 11:49:13;;;;;;;9.02;2.67;;;6.30;80.90;;;;;;4992315;28;20413;-71
2021/03/04 11:51:42;;;;;;;15.98;2.97;;;6.30;80.80;;;;;;4994810;28;20057;-70
2021/03/04 11:54:07;;;;;;;7.03;2.33;;;6.30;80.50;;;;;;5001478;28;20022;-71
2021/03/04 11:56:33;;;;;;;10.30;3.50;;;6.30;80.70;;;;;;4991839;28;20404;-70
2021/03/04 11:59:05;;;;;;;10.52;2.95;;;6.30;80.50;;;;;;4987294;28;20057;-70
2021/03/04 12:01:32;;;;;;;8.80;3.97;;;6.30;80.00;;;;;;4994338;28;20045;-69
2021/03/04 12:03:58;;;;;;;15.48;3.40;;;6.30;80.00;;;;;;4994471;28;20388;-68
2021/03/04 12:06:26;;;;;;;9.00;3.30;;;6.30;80.00;;;;;;4992756;28;20033;-68
2021/03/04 12:08:52;;;;;;;9.05;3.47;;;6.30;79.90;;;;;;4983924;28;20034;-71
2021/03/04 12:11:18;;;;;;;11.02;2.60;;;6.40;79.50;;;;;;5001284;28;20526;-67
2021/03/04 12:13:46;;;;;;;12.13;3.08;;;6.30;79.60;;;;;;4998833;28;20036;-68
2021/03/04 12:16:12;;;;;;;11.00;3.05;;;6.40;79.70;;;;;;4996671;28;20038;-68
2021/03/04 12:18:38;;;;;;;13.65;3.20;;;6.40;80.00;;;;;;4998332;28;20030;-67
2021/03/04 12:21:07;;;;;;;16.35;2.78;;;6.40;79.80;;;;;;4995756;28;20045;-70
2021/03/04 12:23:33;;;;;;;9.93;3.00;;;6.40;79.50;;;;;;4993553;28;20030;-70
2021/03/04 12:25:59;;;;;;;8.95;3.05;;;6.40;79.80;;;;;;4993890;28;20088;-69
2021/03/04 12:28:24;;;;;;;15.18;3.72;;;6.40;80.20;;;;;;4998698;28;20026;-68
2021/03/04 12:30:50;;;;;;;9.65;3.40;;;6.30;80.00;;;;;;4993459;28;20053;-69
2021/03/04 12:33:17;;;;;;;14.15;3.00;;;6.40;79.90;;;;;;4998130;28;20081;-71
2021/03/04 12:35:42;;;;;;;10.45;2.70;;;6.40;80.00;;;;;;4994047;28;20535;-65
2021/03/04 12:38:08;;;;;;;11.05;3.13;;;6.40;80.90;;;;;;4997842;28;21062;-65
2021/03/04 12:40:36;;;;;;;10.38;3.33;;;6.50;79.90;;;;;;4992899;28;20030;-64
2021/03/04 12:43:03;;;;;;;9.98;3.40;;;6.50;79.60;;;;;;4999582;28;20472;-65
2021/03/04 12:45:28;;;;;;;10.43;3.53;;;6.50;79.40;;;;;;4997369;28;20030;-64
2021/03/04 12:47:54;;;;;;;262.27;148.13;;;6.50;79.60;;;;;;4998958;28;20825;-64
2021/03/04 12:50:20;;;;;;;529.85;292.02;;;6.50;80.10;;;;;;4997758;28;20457;-65
2021/03/04 12:52:46;;;;;;;212.73;110.55;;;6.50;80.00;;;;;;4998866;28;20046;-65